sensor_id;sensor_type;location;lat;lon;timestamp;P1;durP1;ratioP1;P2;durP2;ratioP2
22565;SDS011;11449;51.330;19.378;2024-01-30T00:00:34;75.40;;;19.30;;
22565;SDS011;11449;51.330;19.378;2024-01-30T00:06:03;90.70;;;19.80;;
22565;SDS011;11449;51.330;19.378;2024-01-30T00:11:10;105.40;;;20.10;;
22565;SDS011;11449;51.330;19.378;2024-01-30T00:16:21;69.30;;;16.10;;
22565;SDS011;11449;51.330;19.378;2024-01-30T00:21:29;69.00;;;15.60;;
22565;SDS011;11449;51.330;19.378;2024-01-30T00:26:37;66.50;;;14.50;;
22565;SDS011;11449;51.330;19.378;2024-01-30T00:31:45;59.60;;;14.30;;
22565;SDS011;11449;51.330;19.378;2024-01-30T00:36:53;84.80;;;16.20;;
22565;SDS011;11449;51.330;19.378;2024-01-30T00:42:01;104.00;;;17.00;;
22565;SDS011;11449;51.330;19.378;2024-01-30T00:47:06;72.10;;;14.70;;
22565;SDS011;11449;51.330;19.378;2024-01-30T00:52:14;70.90;;;14.50;;
22565;SDS011;11449;51.330;19.378;2024-01-30T00:57:17;60.90;;;12.60;;
22565;SDS011;11449;51.330;19.378;2024-01-30T01:02:21;65.30;;;14.10;;
22565;SDS011;11449;51.330;19.378;2024-01-30T01:07:29;49.90;;;11.00;;
22565;SDS011;11449;51.330;19.378;2024-01-30T01:12:37;62.20;;;12.00;;
22565;SDS011;11449;51.330;19.378;2024-01-30T01:17:45;61.00;;;11.80;;
22565;SDS011;11449;51.330;19.378;2024-01-30T01:22:53;86.70;;;13.80;;
22565;SDS011;11449;51.330;19.378;2024-01-30T01:27:57;97.50;;;14.10;;
22565;SDS011;11449;51.330;19.378;2024-01-30T01:33:02;105.90;;;15.00;;
22565;SDS011;11449;51.330;19.378;2024-01-30T01:38:10;80.40;;;12.10;;
22565;SDS011;11449;51.330;19.378;2024-01-30T01:43:13;58.90;;;10.40;;
22565;SDS011;11449;51.330;19.378;2024-01-30T01:48:21;51.90;;;9.90;;
22565;SDS011;11449;51.330;19.378;2024-01-30T01:53:29;46.80;;;9.40;;
22565;SDS011;11449;51.330;19.378;2024-01-30T01:58:33;54.30;;;9.60;;
22565;SDS011;11449;51.330;19.378;2024-01-30T02:03:40;54.20;;;9.20;;
22565;SDS011;11449;51.330;19.378;2024-01-30T02:08:48;57.70;;;9.70;;
22565;SDS011;11449;51.330;19.378;2024-01-30T02:13:56;88.70;;;15.00;;
22565;SDS011;11449;51.330;19.378;2024-01-30T02:19:00;84.50;;;12.30;;
22565;SDS011;11449;51.330;19.378;2024-01-30T02:24:08;64.40;;;10.90;;
22565;SDS011;11449;51.330;19.378;2024-01-30T02:29:11;52.80;;;8.80;;
22565;SDS011;11449;51.330;19.378;2024-01-30T02:34:19;56.10;;;10.10;;
22565;SDS011;11449;51.330;19.378;2024-01-30T02:39:27;48.10;;;8.80;;
22565;SDS011;11449;51.330;19.378;2024-01-30T02:44:34;46.20;;;9.60;;
22565;SDS011;11449;51.330;19.378;2024-01-30T02:49:38;48.70;;;9.00;;
22565;SDS011;11449;51.330;19.378;2024-01-30T02:54:46;49.70;;;9.10;;
22565;SDS011;11449;51.330;19.378;2024-01-30T02:59:54;63.50;;;10.40;;
22565;SDS011;11449;51.330;19.378;2024-01-30T03:05:04;65.30;;;10.50;;
22565;SDS011;11449;51.330;19.378;2024-01-30T03:10:12;55.60;;;10.20;;
22565;SDS011;11449;51.330;19.378;2024-01-30T03:15:20;47.70;;;8.30;;
22565;SDS011;11449;51.330;19.378;2024-01-30T03:20:28;38.00;;;7.20;;
22565;SDS011;11449;51.330;19.378;2024-01-30T03:25:36;38.90;;;7.90;;
22565;SDS011;11449;51.330;19.378;2024-01-30T03:30:40;45.50;;;7.70;;
22565;SDS011;11449;51.330;19.378;2024-01-30T03:35:48;73.60;;;10.10;;
22565;SDS011;11449;51.330;19.378;2024-01-30T03:40:56;72.80;;;10.40;;
22565;SDS011;11449;51.330;19.378;2024-01-30T03:46:05;63.70;;;9.70;;
22565;SDS011;11449;51.330;19.378;2024-01-30T03:51:13;42.10;;;7.30;;
22565;SDS011;11449;51.330;19.378;2024-01-30T03:56:22;44.80;;;8.10;;
22565;SDS011;11449;51.330;19.378;2024-01-30T04:01:30;46.70;;;8.00;;
22565;SDS011;11449;51.330;19.378;2024-01-30T04:06:37;37.50;;;7.40;;
22565;SDS011;11449;51.330;19.378;2024-01-30T04:11:45;41.20;;;7.20;;
22565;SDS011;11449;51.330;19.378;2024-01-30T04:16:54;54.30;;;8.70;;
22565;SDS011;11449;51.330;19.378;2024-01-30T04:22:01;60.10;;;8.90;;
22565;SDS011;11449;51.330;19.378;2024-01-30T04:27:09;49.10;;;8.00;;
22565;SDS011;11449;51.330;19.378;2024-01-30T04:32:12;50.50;;;8.40;;
22565;SDS011;11449;51.330;19.378;2024-01-30T04:37:20;49.10;;;8.70;;
22565;SDS011;11449;51.330;19.378;2024-01-30T04:42:28;38.80;;;7.90;;
22565;SDS011;11449;51.330;19.378;2024-01-30T04:47:36;48.20;;;9.10;;
22565;SDS011;11449;51.330;19.378;2024-01-30T04:52:39;38.60;;;7.40;;
22565;SDS011;11449;51.330;19.378;2024-01-30T04:57:47;58.10;;;10.70;;
22565;SDS011;11449;51.330;19.378;2024-01-30T05:02:55;63.90;;;9.30;;
22565;SDS011;11449;51.330;19.378;2024-01-30T05:08:03;69.20;;;10.20;;
22565;SDS011;11449;51.330;19.378;2024-01-30T05:13:11;54.20;;;9.60;;
22565;SDS011;11449;51.330;19.378;2024-01-30T05:18:21;41.80;;;8.50;;
22565;SDS011;11449;51.330;19.378;2024-01-30T05:23:24;53.00;;;10.30;;
22565;SDS011;11449;51.330;19.378;2024-01-30T05:28:32;46.20;;;8.60;;
22565;SDS011;11449;51.330;19.378;2024-01-30T05:33:36;47.90;;;8.80;;
22565;SDS011;11449;51.330;19.378;2024-01-30T05:38:44;52.30;;;9.30;;
22565;SDS011;11449;51.330;19.378;2024-01-30T05:43:52;73.40;;;10.90;;
22565;SDS011;11449;51.330;19.378;2024-01-30T05:49:00;68.10;;;10.20;;
22565;SDS011;11449;51.330;19.378;2024-01-30T05:54:07;52.40;;;8.40;;
22565;SDS011;11449;51.330;19.378;2024-01-30T05:59:15;52.90;;;9.60;;
22565;SDS011;11449;51.330;19.378;2024-01-30T06:04:23;40.90;;;7.90;;
22565;SDS011;11449;51.330;19.378;2024-01-30T06:09:31;52.10;;;9.90;;
22565;SDS011;11449;51.330;19.378;2024-01-30T06:14:38;41.60;;;8.60;;
22565;SDS011;11449;51.330;19.378;2024-01-30T06:19:46;46.70;;;9.80;;
22565;SDS011;11449;51.330;19.378;2024-01-30T06:24:54;46.30;;;9.10;;
22565;SDS011;11449;51.330;19.378;2024-01-30T06:30:03;47.50;;;8.60;;
22565;SDS011;11449;51.330;19.378;2024-01-30T06:35:07;49.60;;;9.20;;
22565;SDS011;11449;51.330;19.378;2024-01-30T06:40:15;74.00;;;11.80;;
22565;SDS011;11449;51.330;19.378;2024-01-30T06:45:19;67.30;;;11.10;;
22565;SDS011;11449;51.330;19.378;2024-01-30T06:50:27;51.20;;;9.20;;
22565;SDS011;11449;51.330;19.378;2024-01-30T06:55:35;48.70;;;9.30;;
22565;SDS011;11449;51.330;19.378;2024-01-30T07:00:43;43.90;;;10.00;;
22565;SDS011;11449;51.330;19.378;2024-01-30T07:05:50;73.80;;;12.40;;
22565;SDS011;11449;51.330;19.378;2024-01-30T07:10:59;45.00;;;8.60;;
22565;SDS011;11449;51.330;19.378;2024-01-30T07:16:07;42.20;;;8.50;;
22565;SDS011;11449;51.330;19.378;2024-01-30T07:21:11;47.00;;;9.00;;
22565;SDS011;11449;51.330;19.378;2024-01-30T07:26:19;51.40;;;9.00;;
22565;SDS011;11449;51.330;19.378;2024-01-30T07:31:28;60.90;;;9.40;;
22565;SDS011;11449;51.330;19.378;2024-01-30T07:36:31;52.80;;;9.30;;
22565;SDS011;11449;51.330;19.378;2024-01-30T07:41:39;40.10;;;8.40;;
22565;SDS011;11449;51.330;19.378;2024-01-30T07:46:42;43.20;;;8.60;;
22565;SDS011;11449;51.330;19.378;2024-01-30T07:51:46;36.40;;;7.50;;
22565;SDS011;11449;51.330;19.378;2024-01-30T07:56:54;40.30;;;8.10;;
22565;SDS011;11449;51.330;19.378;2024-01-30T08:02:01;50.60;;;9.10;;
22565;SDS011;11449;51.330;19.378;2024-01-30T08:07:04;51.60;;;9.20;;
22565;SDS011;11449;51.330;19.378;2024-01-30T08:12:12;47.10;;;8.40;;
22565;SDS011;11449;51.330;19.378;2024-01-30T08:17:21;70.80;;;10.40;;
22565;SDS011;11449;51.330;19.378;2024-01-30T08:22:28;74.80;;;10.70;;
22565;SDS011;11449;51.330;19.378;2024-01-30T08:27:36;90.70;;;11.80;;
22565;SDS011;11449;51.330;19.378;2024-01-30T08:32:45;102.90;;;24.50;;
22565;SDS011;11449;51.330;19.378;2024-01-30T08:37:53;56.70;;;9.20;;
22565;SDS011;11449;51.330;19.378;2024-01-30T08:42:57;54.90;;;9.40;;
22565;SDS011;11449;51.330;19.378;2024-01-30T08:48:00;60.60;;;9.20;;
22565;SDS011;11449;51.330;19.378;2024-01-30T08:53:12;67.30;;;9.60;;
22565;SDS011;11449;51.330;19.378;2024-01-30T08:58:20;79.30;;;11.40;;
22565;SDS011;11449;51.330;19.378;2024-01-30T09:03:38;105.50;;;12.90;;
22565;SDS011;11449;51.330;19.378;2024-01-30T09:08:48;86.70;;;21.70;;
22565;SDS011;11449;51.330;19.378;2024-01-30T09:13:52;76.80;;;9.90;;
22565;SDS011;11449;51.330;19.378;2024-01-30T09:19:01;64.30;;;9.50;;
22565;SDS011;11449;51.330;19.378;2024-01-30T09:24:08;1016.20;;;934.00;;
22565;SDS011;11449;51.330;19.378;2024-01-30T09:29:16;52.60;;;9.50;;
22565;SDS011;11449;51.330;19.378;2024-01-30T09:34:27;50.20;;;9.20;;
22565;SDS011;11449;51.330;19.378;2024-01-30T09:39:35;57.80;;;9.80;;
22565;SDS011;11449;51.330;19.378;2024-01-30T09:44:46;53.80;;;9.30;;
22565;SDS011;11449;51.330;19.378;2024-01-30T09:49:55;61.20;;;11.20;;
22565;SDS011;11449;51.330;19.378;2024-01-30T09:55:04;94.20;;;28.50;;
22565;SDS011;11449;51.330;19.378;2024-01-30T10:00:27;700.80;;;646.90;;
22565;SDS011;11449;51.330;19.378;2024-01-30T10:05:31;1032.30;;;958.00;;
22565;SDS011;11449;51.330;19.378;2024-01-30T10:10:41;82.00;;;15.00;;
22565;SDS011;11449;51.330;19.378;2024-01-30T10:15:48;210.70;;;108.60;;
22565;SDS011;11449;51.330;19.378;2024-01-30T10:20:56;72.80;;;12.20;;
22565;SDS011;11449;51.330;19.378;2024-01-30T10:26:04;63.60;;;11.00;;
22565;SDS011;11449;51.330;19.378;2024-01-30T10:31:15;50.40;;;10.60;;
22565;SDS011;11449;51.330;19.378;2024-01-30T10:36:25;65.20;;;13.40;;
22565;SDS011;11449;51.330;19.378;2024-01-30T10:41:38;117.90;;;21.30;;
22565;SDS011;11449;51.330;19.378;2024-01-30T10:46:51;86.50;;;16.20;;
22565;SDS011;11449;51.330;19.378;2024-01-30T10:52:03;47.80;;;9.30;;
22565;SDS011;11449;51.330;19.378;2024-01-30T10:57:25;1130.30;;;999.90;;
22565;SDS011;11449;51.330;19.378;2024-01-30T11:15:16;1177.30;;;999.90;;
22565;SDS011;11449;51.330;19.378;2024-01-30T11:38:10;376.00;;;256.30;;
22565;SDS011;11449;51.330;19.378;2024-01-30T11:44:08;306.40;;;206.30;;
22565;SDS011;11449;51.330;19.378;2024-01-30T11:49:57;222.40;;;134.40;;
22565;SDS011;11449;51.330;19.378;2024-01-30T11:55:25;186.90;;;94.80;;
22565;SDS011;11449;51.330;19.378;2024-01-30T12:50:04;46.70;;;9.00;;
22565;SDS011;11449;51.330;19.378;2024-01-30T12:55:51;53.50;;;10.30;;
22565;SDS011;11449;51.330;19.378;2024-01-30T13:07:15;34.20;;;9.10;;
22565;SDS011;11449;51.330;19.378;2024-01-30T13:12:49;42.30;;;14.20;;
22565;SDS011;11449;51.330;19.378;2024-01-30T13:17:56;29.50;;;8.50;;
22565;SDS011;11449;51.330;19.378;2024-01-30T13:23:07;37.70;;;11.10;;
22565;SDS011;11449;51.330;19.378;2024-01-30T13:28:39;33.70;;;9.10;;
22565;SDS011;11449;51.330;19.378;2024-01-30T13:33:49;38.00;;;10.60;;
22565;SDS011;11449;51.330;19.378;2024-01-30T13:39:17;33.30;;;9.20;;
22565;SDS011;11449;51.330;19.378;2024-01-30T13:44:45;43.00;;;11.70;;
22565;SDS011;11449;51.330;19.378;2024-01-30T13:49:48;39.30;;;10.50;;
22565;SDS011;11449;51.330;19.378;2024-01-30T13:54:56;41.50;;;9.80;;
22565;SDS011;11449;51.330;19.378;2024-01-30T14:00:03;35.30;;;8.60;;
22565;SDS011;11449;51.330;19.378;2024-01-30T14:05:17;39.80;;;10.00;;
22565;SDS011;11449;51.330;19.378;2024-01-30T14:10:26;37.20;;;9.00;;
22565;SDS011;11449;51.330;19.378;2024-01-30T14:15:34;50.40;;;9.60;;
22565;SDS011;11449;51.330;19.378;2024-01-30T14:20:41;42.10;;;8.60;;
22565;SDS011;11449;51.330;19.378;2024-01-30T14:25:49;48.30;;;9.80;;
22565;SDS011;11449;51.330;19.378;2024-01-30T14:30:59;37.40;;;8.60;;
22565;SDS011;11449;51.330;19.378;2024-01-30T14:36:06;56.00;;;13.20;;
22565;SDS011;11449;51.330;19.378;2024-01-30T14:41:15;46.20;;;11.50;;
22565;SDS011;11449;51.330;19.378;2024-01-30T14:46:23;49.30;;;13.50;;
22565;SDS011;11449;51.330;19.378;2024-01-30T14:51:31;58.30;;;12.20;;
22565;SDS011;11449;51.330;19.378;2024-01-30T14:56:39;58.30;;;11.30;;
22565;SDS011;11449;51.330;19.378;2024-01-30T15:01:47;57.40;;;10.40;;
22565;SDS011;11449;51.330;19.378;2024-01-30T15:06:55;302.00;;;189.40;;
22565;SDS011;11449;51.330;19.378;2024-01-30T15:12:03;387.50;;;218.20;;
22565;SDS011;11449;51.330;19.378;2024-01-30T15:17:11;410.10;;;269.60;;
22565;SDS011;11449;51.330;19.378;2024-01-30T15:22:19;387.20;;;257.70;;
22565;SDS011;11449;51.330;19.378;2024-01-30T15:27:26;350.70;;;226.00;;
22565;SDS011;11449;51.330;19.378;2024-01-30T15:32:34;448.90;;;317.10;;
22565;SDS011;11449;51.330;19.378;2024-01-30T15:37:42;473.40;;;327.80;;
22565;SDS011;11449;51.330;19.378;2024-01-30T15:42:49;393.60;;;261.70;;
22565;SDS011;11449;51.330;19.378;2024-01-30T15:47:52;359.80;;;222.10;;
22565;SDS011;11449;51.330;19.378;2024-01-30T15:53:00;414.00;;;267.30;;
22565;SDS011;11449;51.330;19.378;2024-01-30T15:58:08;319.30;;;196.70;;
22565;SDS011;11449;51.330;19.378;2024-01-30T16:03:16;391.40;;;268.90;;
22565;SDS011;11449;51.330;19.378;2024-01-30T16:08:23;309.50;;;195.90;;
22565;SDS011;11449;51.330;19.378;2024-01-30T16:13:31;402.80;;;262.60;;
22565;SDS011;11449;51.330;19.378;2024-01-30T16:18:39;359.10;;;234.70;;
22565;SDS011;11449;51.330;19.378;2024-01-30T16:23:42;384.70;;;249.20;;
22565;SDS011;11449;51.330;19.378;2024-01-30T16:28:49;329.10;;;212.30;;
22565;SDS011;11449;51.330;19.378;2024-01-30T16:33:57;480.50;;;433.50;;
22565;SDS011;11449;51.330;19.378;2024-01-30T16:39:07;817.60;;;754.00;;
22565;SDS011;11449;51.330;19.378;2024-01-30T16:44:15;958.70;;;889.90;;
22565;SDS011;11449;51.330;19.378;2024-01-30T16:49:23;995.00;;;921.50;;
22565;SDS011;11449;51.330;19.378;2024-01-30T16:54:30;993.50;;;919.80;;
22565;SDS011;11449;51.330;19.378;2024-01-30T16:59:38;414.80;;;272.10;;
22565;SDS011;11449;51.330;19.378;2024-01-30T17:04:46;426.70;;;282.40;;
22565;SDS011;11449;51.330;19.378;2024-01-30T17:09:53;367.60;;;232.40;;
22565;SDS011;11449;51.330;19.378;2024-01-30T17:15:03;310.30;;;194.70;;
22565;SDS011;11449;51.330;19.378;2024-01-30T17:20:11;380.00;;;232.30;;
22565;SDS011;11449;51.330;19.378;2024-01-30T17:25:19;411.40;;;286.70;;
22565;SDS011;11449;51.330;19.378;2024-01-30T17:30:26;346.00;;;227.80;;
22565;SDS011;11449;51.330;19.378;2024-01-30T17:35:35;406.40;;;282.00;;
22565;SDS011;11449;51.330;19.378;2024-01-30T17:40:42;446.20;;;331.50;;
22565;SDS011;11449;51.330;19.378;2024-01-30T17:45:50;350.30;;;203.60;;
22565;SDS011;11449;51.330;19.378;2024-01-30T17:50:58;390.40;;;257.40;;
22565;SDS011;11449;51.330;19.378;2024-01-30T17:56:05;443.00;;;287.20;;
22565;SDS011;11449;51.330;19.378;2024-01-30T18:01:13;348.10;;;219.10;;
22565;SDS011;11449;51.330;19.378;2024-01-30T18:06:21;398.20;;;281.00;;
22565;SDS011;11449;51.330;19.378;2024-01-30T18:11:29;483.10;;;366.70;;
22565;SDS011;11449;51.330;19.378;2024-01-30T18:16:37;388.40;;;247.10;;
22565;SDS011;11449;51.330;19.378;2024-01-30T18:21:44;438.00;;;305.50;;
22565;SDS011;11449;51.330;19.378;2024-01-30T18:26:52;425.80;;;281.70;;
22565;SDS011;11449;51.330;19.378;2024-01-30T18:32:00;373.30;;;222.50;;
22565;SDS011;11449;51.330;19.378;2024-01-30T18:37:08;466.20;;;316.90;;
22565;SDS011;11449;51.330;19.378;2024-01-30T18:42:17;104.90;;;21.60;;
22565;SDS011;11449;51.330;19.378;2024-01-30T18:47:25;103.90;;;16.80;;
22565;SDS011;11449;51.330;19.378;2024-01-30T18:52:33;142.80;;;20.10;;
22565;SDS011;11449;51.330;19.378;2024-01-30T18:57:40;150.90;;;24.10;;
22565;SDS011;11449;51.330;19.378;2024-01-30T19:02:48;123.60;;;19.30;;
22565;SDS011;11449;51.330;19.378;2024-01-30T19:07:56;121.30;;;17.50;;
22565;SDS011;11449;51.330;19.378;2024-01-30T19:13:04;82.30;;;14.90;;
22565;SDS011;11449;51.330;19.378;2024-01-30T19:18:13;94.30;;;17.50;;
22565;SDS011;11449;51.330;19.378;2024-01-30T19:23:20;93.50;;;16.00;;
22565;SDS011;11449;51.330;19.378;2024-01-30T19:28:28;68.80;;;13.00;;
22565;SDS011;11449;51.330;19.378;2024-01-30T19:33:36;147.70;;;20.80;;
22565;SDS011;11449;51.330;19.378;2024-01-30T19:38:45;91.70;;;13.20;;
22565;SDS011;11449;51.330;19.378;2024-01-30T19:43:54;55.60;;;10.90;;
22565;SDS011;11449;51.330;19.378;2024-01-30T19:48:57;71.80;;;12.10;;
22565;SDS011;11449;51.330;19.378;2024-01-30T19:54:00;76.70;;;12.40;;
22565;SDS011;11449;51.330;19.378;2024-01-30T19:59:03;72.80;;;11.90;;
22565;SDS011;11449;51.330;19.378;2024-01-30T20:04:11;68.00;;;12.30;;
22565;SDS011;11449;51.330;19.378;2024-01-30T20:09:20;60.30;;;11.20;;
22565;SDS011;11449;51.330;19.378;2024-01-30T20:14:23;60.10;;;12.10;;
22565;SDS011;11449;51.330;19.378;2024-01-30T20:19:30;73.70;;;11.70;;
22565;SDS011;11449;51.330;19.378;2024-01-30T20:24:38;101.30;;;15.80;;
22565;SDS011;11449;51.330;19.378;2024-01-30T20:29:46;106.80;;;19.90;;
22565;SDS011;11449;51.330;19.378;2024-01-30T20:34:53;148.00;;;24.40;;
22565;SDS011;11449;51.330;19.378;2024-01-30T20:40:05;97.40;;;18.00;;
22565;SDS011;11449;51.330;19.378;2024-01-30T20:45:13;122.00;;;20.90;;
22565;SDS011;11449;51.330;19.378;2024-01-30T20:50:15;99.10;;;17.60;;
22565;SDS011;11449;51.330;19.378;2024-01-30T20:55:24;287.60;;;178.60;;
22565;SDS011;11449;51.330;19.378;2024-01-30T21:00:32;388.70;;;270.70;;
22565;SDS011;11449;51.330;19.378;2024-01-30T21:05:40;90.80;;;17.10;;
22565;SDS011;11449;51.330;19.378;2024-01-30T21:10:44;416.70;;;376.80;;
22565;SDS011;11449;51.330;19.378;2024-01-30T21:15:47;85.80;;;14.10;;
22565;SDS011;11449;51.330;19.378;2024-01-30T21:20:54;164.40;;;98.80;;
22565;SDS011;11449;51.330;19.378;2024-01-30T21:25:57;270.60;;;141.40;;
22565;SDS011;11449;51.330;19.378;2024-01-30T21:31:08;996.60;;;911.00;;
22565;SDS011;11449;51.330;19.378;2024-01-30T21:36:16;881.20;;;814.20;;
22565;SDS011;11449;51.330;19.378;2024-01-30T21:41:18;900.70;;;832.40;;
22565;SDS011;11449;51.330;19.378;2024-01-30T21:46:27;609.70;;;556.10;;
22565;SDS011;11449;51.330;19.378;2024-01-30T21:51:36;757.50;;;695.90;;
22565;SDS011;11449;51.330;19.378;2024-01-30T21:56:44;889.40;;;822.50;;
22565;SDS011;11449;51.330;19.378;2024-01-30T22:01:52;246.00;;;95.90;;
22565;SDS011;11449;51.330;19.378;2024-01-30T22:07:00;233.40;;;83.70;;
22565;SDS011;11449;51.330;19.378;2024-01-30T22:12:08;160.80;;;60.80;;
22565;SDS011;11449;51.330;19.378;2024-01-30T22:17:16;206.40;;;80.50;;
22565;SDS011;11449;51.330;19.378;2024-01-30T22:22:23;194.10;;;99.80;;
22565;SDS011;11449;51.330;19.378;2024-01-30T22:27:27;260.80;;;164.90;;
22565;SDS011;11449;51.330;19.378;2024-01-30T22:32:34;193.80;;;91.20;;
22565;SDS011;11449;51.330;19.378;2024-01-30T22:37:44;202.90;;;100.20;;
22565;SDS011;11449;51.330;19.378;2024-01-30T22:42:52;234.20;;;124.10;;
22565;SDS011;11449;51.330;19.378;2024-01-30T22:47:57;281.50;;;162.00;;
22565;SDS011;11449;51.330;19.378;2024-01-30T22:53:00;317.30;;;196.40;;
22565;SDS011;11449;51.330;19.378;2024-01-30T22:58:07;355.20;;;253.50;;
22565;SDS011;11449;51.330;19.378;2024-01-30T23:03:29;278.60;;;245.40;;
22565;SDS011;11449;51.330;19.378;2024-01-30T23:08:46;415.60;;;372.80;;
22565;SDS011;11449;51.330;19.378;2024-01-30T23:13:55;778.20;;;712.80;;
22565;SDS011;11449;51.330;19.378;2024-01-30T23:19:02;633.70;;;576.20;;
22565;SDS011;11449;51.330;19.378;2024-01-30T23:24:11;701.70;;;641.40;;
22565;SDS011;11449;51.330;19.378;2024-01-30T23:29:19;887.30;;;820.70;;
22565;SDS011;11449;51.330;19.378;2024-01-30T23:34:27;893.50;;;826.90;;
22565;SDS011;11449;51.330;19.378;2024-01-30T23:39:35;897.70;;;829.90;;
22565;SDS011;11449;51.330;19.378;2024-01-30T23:44:42;882.80;;;816.10;;
22565;SDS011;11449;51.330;19.378;2024-01-30T23:49:50;533.10;;;481.00;;
22565;SDS011;11449;51.330;19.378;2024-01-30T23:54:58;285.30;;;177.20;;
